sensor_id;sensor_type;location;lat;lon;timestamp;P1;durP1;ratioP1;P2;durP2;ratioP2
24137;SDS011;17947;50.672;6.076;2023-03-01T00:01:58;2.70;;;2.28;;
24137;SDS011;17947;50.672;6.076;2023-03-01T00:04:24;2.58;;;2.38;;
24137;SDS011;17947;50.672;6.076;2023-03-01T00:06:50;2.58;;;2.30;;
24137;SDS011;17947;50.672;6.076;2023-03-01T00:09:16;3.03;;;2.25;;
24137;SDS011;17947;50.672;6.076;2023-03-01T00:11:44;2.63;;;2.42;;
24137;SDS011;17947;50.672;6.076;2023-03-01T00:14:10;2.83;;;2.42;;
24137;SDS011;17947;50.672;6.076;2023-03-01T00:16:37;2.75;;;2.42;;
24137;SDS011;17947;50.672;6.076;2023-03-01T00:19:04;2.72;;;2.40;;
24137;SDS011;17947;50.672;6.076;2023-03-01T00:21:31;2.72;;;2.20;;
24137;SDS011;17947;50.672;6.076;2023-03-01T00:23:57;2.55;;;2.35;;
24137;SDS011;17947;50.672;6.076;2023-03-01T00:26:24;3.17;;;2.35;;
24137;SDS011;17947;50.672;6.076;2023-03-01T00:28:50;2.92;;;2.53;;
24137;SDS011;17947;50.672;6.076;2023-03-01T00:31:18;3.17;;;2.38;;
24137;SDS011;17947;50.672;6.076;2023-03-01T00:33:44;2.50;;;2.10;;
24137;SDS011;17947;50.672;6.076;2023-03-01T00:36:11;3.45;;;2.42;;
24137;SDS011;17947;50.672;6.076;2023-03-01T00:38:39;3.42;;;2.53;;
24137;SDS011;17947;50.672;6.076;2023-03-01T00:41:06;2.90;;;2.35;;
24137;SDS011;17947;50.672;6.076;2023-03-01T00:43:33;2.95;;;2.28;;
24137;SDS011;17947;50.672;6.076;2023-03-01T00:46:11;2.40;;;2.20;;
24137;SDS011;17947;50.672;6.076;2023-03-01T00:48:38;3.58;;;2.20;;
24137;SDS011;17947;50.672;6.076;2023-03-01T00:51:05;2.67;;;2.40;;
24137;SDS011;17947;50.672;6.076;2023-03-01T00:53:31;2.97;;;2.38;;
24137;SDS011;17947;50.672;6.076;2023-03-01T00:55:57;2.53;;;2.33;;
24137;SDS011;17947;50.672;6.076;2023-03-01T00:58:24;2.72;;;2.20;;
24137;SDS011;17947;50.672;6.076;2023-03-01T01:00:50;3.15;;;2.20;;
24137;SDS011;17947;50.672;6.076;2023-03-01T01:03:17;2.75;;;2.42;;
24137;SDS011;17947;50.672;6.076;2023-03-01T01:05:43;3.55;;;2.40;;
24137;SDS011;17947;50.672;6.076;2023-03-01T01:08:09;2.63;;;2.33;;
24137;SDS011;17947;50.672;6.076;2023-03-01T01:10:35;2.65;;;2.20;;
24137;SDS011;17947;50.672;6.076;2023-03-01T01:13:01;3.33;;;2.47;;
24137;SDS011;17947;50.672;6.076;2023-03-01T01:15:28;2.40;;;2.20;;
24137;SDS011;17947;50.672;6.076;2023-03-01T01:17:54;3.63;;;2.30;;
24137;SDS011;17947;50.672;6.076;2023-03-01T01:20:20;2.40;;;2.20;;
24137;SDS011;17947;50.672;6.076;2023-03-01T01:22:46;2.60;;;2.10;;
24137;SDS011;17947;50.672;6.076;2023-03-01T01:25:12;2.72;;;2.30;;
24137;SDS011;17947;50.672;6.076;2023-03-01T01:27:38;2.20;;;2.00;;
24137;SDS011;17947;50.672;6.076;2023-03-01T01:30:04;2.35;;;2.10;;
24137;SDS011;17947;50.672;6.076;2023-03-01T01:32:30;2.92;;;2.20;;
24137;SDS011;17947;50.672;6.076;2023-03-01T01:34:56;2.80;;;2.42;;
24137;SDS011;17947;50.672;6.076;2023-03-01T01:37:22;2.63;;;2.35;;
24137;SDS011;17947;50.672;6.076;2023-03-01T01:39:59;3.05;;;2.28;;
24137;SDS011;17947;50.672;6.076;2023-03-01T01:42:26;2.72;;;2.38;;
24137;SDS011;17947;50.672;6.076;2023-03-01T01:47:37;3.47;;;2.35;;
24137;SDS011;17947;50.672;6.076;2023-03-01T01:50:03;2.45;;;2.03;;
24137;SDS011;17947;50.672;6.076;2023-03-01T01:52:31;2.30;;;2.10;;
24137;SDS011;17947;50.672;6.076;2023-03-01T01:55:11;2.55;;;2.30;;
24137;SDS011;17947;50.672;6.076;2023-03-01T01:57:44;2.42;;;2.13;;
24137;SDS011;17947;50.672;6.076;2023-03-01T02:00:18;2.60;;;2.40;;
24137;SDS011;17947;50.672;6.076;2023-03-01T02:02:45;2.58;;;2.38;;
24137;SDS011;17947;50.672;6.076;2023-03-01T02:05:15;2.72;;;2.30;;
24137;SDS011;17947;50.672;6.076;2023-03-01T02:07:43;2.85;;;2.20;;
24137;SDS011;17947;50.672;6.076;2023-03-01T02:10:10;3.10;;;2.10;;
24137;SDS011;17947;50.672;6.076;2023-03-01T02:12:36;2.15;;;1.90;;
24137;SDS011;17947;50.672;6.076;2023-03-01T02:15:03;3.28;;;2.50;;
24137;SDS011;17947;50.672;6.076;2023-03-01T02:17:29;3.55;;;2.60;;
24137;SDS011;17947;50.672;6.076;2023-03-01T02:24:53;2.85;;;2.40;;
24137;SDS011;17947;50.672;6.076;2023-03-01T02:27:24;3.45;;;2.50;;
24137;SDS011;17947;50.672;6.076;2023-03-01T02:29:51;2.40;;;2.20;;
24137;SDS011;17947;50.672;6.076;2023-03-01T02:32:18;2.50;;;2.30;;
24137;SDS011;17947;50.672;6.076;2023-03-01T02:34:50;2.42;;;2.22;;
24137;SDS011;17947;50.672;6.076;2023-03-01T02:37:17;2.85;;;2.55;;
24137;SDS011;17947;50.672;6.076;2023-03-01T02:39:49;2.67;;;2.33;;
24137;SDS011;17947;50.672;6.076;2023-03-01T02:42:18;2.67;;;2.05;;
24137;SDS011;17947;50.672;6.076;2023-03-01T02:44:45;3.85;;;2.47;;
24137;SDS011;17947;50.672;6.076;2023-03-01T02:47:11;2.42;;;2.22;;
24137;SDS011;17947;50.672;6.076;2023-03-01T02:49:37;2.60;;;2.17;;
24137;SDS011;17947;50.672;6.076;2023-03-01T02:54:57;2.30;;;2.10;;
24137;SDS011;17947;50.672;6.076;2023-03-01T02:57:24;2.70;;;2.50;;
24137;SDS011;17947;50.672;6.076;2023-03-01T02:59:52;2.55;;;2.20;;
24137;SDS011;17947;50.672;6.076;2023-03-01T03:02:20;2.40;;;2.20;;
24137;SDS011;17947;50.672;6.076;2023-03-01T03:05:00;2.67;;;2.42;;
24137;SDS011;17947;50.672;6.076;2023-03-01T03:07:26;2.90;;;2.42;;
24137;SDS011;17947;50.672;6.076;2023-03-01T03:09:52;2.88;;;2.50;;
24137;SDS011;17947;50.672;6.076;2023-03-01T03:12:18;3.03;;;2.13;;
24137;SDS011;17947;50.672;6.076;2023-03-01T03:14:44;2.95;;;2.13;;
24137;SDS011;17947;50.672;6.076;2023-03-01T03:17:10;2.70;;;2.38;;
24137;SDS011;17947;50.672;6.076;2023-03-01T03:19:36;2.42;;;2.20;;
24137;SDS011;17947;50.672;6.076;2023-03-01T03:22:02;3.42;;;2.35;;
24137;SDS011;17947;50.672;6.076;2023-03-01T03:24:28;2.97;;;2.45;;
24137;SDS011;17947;50.672;6.076;2023-03-01T03:27:03;2.75;;;2.20;;
24137;SDS011;17947;50.672;6.076;2023-03-01T03:29:29;2.78;;;2.22;;
24137;SDS011;17947;50.672;6.076;2023-03-01T03:31:55;2.35;;;2.15;;
24137;SDS011;17947;50.672;6.076;2023-03-01T03:34:21;2.92;;;2.63;;
24137;SDS011;17947;50.672;6.076;2023-03-01T03:36:47;2.88;;;2.30;;
24137;SDS011;17947;50.672;6.076;2023-03-01T03:39:13;3.08;;;2.10;;
24137;SDS011;17947;50.672;6.076;2023-03-01T03:41:39;2.28;;;1.95;;
24137;SDS011;17947;50.672;6.076;2023-03-01T03:44:05;2.50;;;2.30;;
24137;SDS011;17947;50.672;6.076;2023-03-01T03:46:30;4.00;;;2.10;;
24137;SDS011;17947;50.672;6.076;2023-03-01T03:48:57;2.22;;;2.00;;
24137;SDS011;17947;50.672;6.076;2023-03-01T03:51:23;2.47;;;2.28;;
24137;SDS011;17947;50.672;6.076;2023-03-01T03:53:49;2.20;;;2.00;;
24137;SDS011;17947;50.672;6.076;2023-03-01T03:56:15;2.72;;;2.35;;
24137;SDS011;17947;50.672;6.076;2023-03-01T03:58:41;2.78;;;2.40;;
24137;SDS011;17947;50.672;6.076;2023-03-01T04:01:07;2.50;;;2.20;;
24137;SDS011;17947;50.672;6.076;2023-03-01T04:03:34;2.83;;;2.00;;
24137;SDS011;17947;50.672;6.076;2023-03-01T04:06:00;2.65;;;2.05;;
24137;SDS011;17947;50.672;6.076;2023-03-01T04:08:26;2.13;;;1.92;;
24137;SDS011;17947;50.672;6.076;2023-03-01T04:10:56;2.67;;;2.20;;
24137;SDS011;17947;50.672;6.076;2023-03-01T04:13:22;2.38;;;1.88;;
24137;SDS011;17947;50.672;6.076;2023-03-01T04:15:50;2.95;;;2.10;;
24137;SDS011;17947;50.672;6.076;2023-03-01T04:18:17;2.38;;;2.05;;
24137;SDS011;17947;50.672;6.076;2023-03-01T04:20:43;2.67;;;2.22;;
24137;SDS011;17947;50.672;6.076;2023-03-01T04:23:11;2.75;;;2.20;;
24137;SDS011;17947;50.672;6.076;2023-03-01T04:25:55;2.67;;;2.05;;
24137;SDS011;17947;50.672;6.076;2023-03-01T04:28:28;2.30;;;2.10;;
24137;SDS011;17947;50.672;6.076;2023-03-01T04:30:55;2.50;;;2.03;;
24137;SDS011;17947;50.672;6.076;2023-03-01T04:33:22;2.22;;;1.90;;
24137;SDS011;17947;50.672;6.076;2023-03-01T04:35:48;2.40;;;2.20;;
24137;SDS011;17947;50.672;6.076;2023-03-01T04:38:14;3.00;;;2.40;;
24137;SDS011;17947;50.672;6.076;2023-03-01T04:40:41;2.55;;;2.17;;
24137;SDS011;17947;50.672;6.076;2023-03-01T04:43:08;2.58;;;2.10;;
24137;SDS011;17947;50.672;6.076;2023-03-01T04:45:34;2.72;;;2.20;;
24137;SDS011;17947;50.672;6.076;2023-03-01T04:48:00;2.33;;;2.10;;
24137;SDS011;17947;50.672;6.076;2023-03-01T04:50:26;2.97;;;2.10;;
24137;SDS011;17947;50.672;6.076;2023-03-01T04:52:52;2.40;;;2.20;;
24137;SDS011;17947;50.672;6.076;2023-03-01T04:55:19;2.92;;;2.03;;
24137;SDS011;17947;50.672;6.076;2023-03-01T04:57:45;2.20;;;2.00;;
24137;SDS011;17947;50.672;6.076;2023-03-01T05:00:11;2.53;;;2.28;;
24137;SDS011;17947;50.672;6.076;2023-03-01T05:05:14;2.90;;;2.20;;
24137;SDS011;17947;50.672;6.076;2023-03-01T05:07:40;2.75;;;2.15;;
24137;SDS011;17947;50.672;6.076;2023-03-01T05:10:06;2.40;;;2.20;;
24137;SDS011;17947;50.672;6.076;2023-03-01T05:12:32;2.35;;;2.15;;
24137;SDS011;17947;50.672;6.076;2023-03-01T05:14:58;3.13;;;2.13;;
24137;SDS011;17947;50.672;6.076;2023-03-01T05:17:24;2.83;;;2.40;;
24137;SDS011;17947;50.672;6.076;2023-03-01T05:19:50;2.20;;;2.00;;
24137;SDS011;17947;50.672;6.076;2023-03-01T05:22:16;2.28;;;2.08;;
24137;SDS011;17947;50.672;6.076;2023-03-01T05:24:42;3.17;;;2.20;;
24137;SDS011;17947;50.672;6.076;2023-03-01T05:27:08;2.22;;;1.90;;
24137;SDS011;17947;50.672;6.076;2023-03-01T05:29:34;3.75;;;2.20;;
24137;SDS011;17947;50.672;6.076;2023-03-01T05:32:00;2.78;;;2.10;;
24137;SDS011;17947;50.672;6.076;2023-03-01T05:34:28;2.45;;;2.17;;
24137;SDS011;17947;50.672;6.076;2023-03-01T05:36:55;2.40;;;2.20;;
24137;SDS011;17947;50.672;6.076;2023-03-01T05:39:22;2.50;;;2.30;;
24137;SDS011;17947;50.672;6.076;2023-03-01T05:41:51;3.05;;;2.13;;
24137;SDS011;17947;50.672;6.076;2023-03-01T05:44:18;3.20;;;2.10;;
24137;SDS011;17947;50.672;6.076;2023-03-01T05:46:43;2.40;;;2.00;;
24137;SDS011;17947;50.672;6.076;2023-03-01T05:49:10;2.83;;;2.40;;
24137;SDS011;17947;50.672;6.076;2023-03-01T05:51:38;2.35;;;1.95;;
24137;SDS011;17947;50.672;6.076;2023-03-01T05:54:04;3.55;;;2.10;;
24137;SDS011;17947;50.672;6.076;2023-03-01T05:56:32;2.67;;;2.28;;
24137;SDS011;17947;50.672;6.076;2023-03-01T05:58:58;2.80;;;2.40;;
24137;SDS011;17947;50.672;6.076;2023-03-01T06:01:24;2.50;;;2.30;;
24137;SDS011;17947;50.672;6.076;2023-03-01T06:03:50;2.20;;;2.00;;
24137;SDS011;17947;50.672;6.076;2023-03-01T06:06:16;2.33;;;2.13;;
24137;SDS011;17947;50.672;6.076;2023-03-01T06:08:42;2.58;;;2.15;;
24137;SDS011;17947;50.672;6.076;2023-03-01T06:11:08;2.70;;;2.35;;
24137;SDS011;17947;50.672;6.076;2023-03-01T06:13:34;2.30;;;2.10;;
24137;SDS011;17947;50.672;6.076;2023-03-01T06:16:03;2.55;;;2.10;;
24137;SDS011;17947;50.672;6.076;2023-03-01T06:18:29;3.78;;;2.50;;
24137;SDS011;17947;50.672;6.076;2023-03-01T06:20:55;2.92;;;2.20;;
24137;SDS011;17947;50.672;6.076;2023-03-01T06:23:22;2.20;;;2.00;;
24137;SDS011;17947;50.672;6.076;2023-03-01T06:25:48;2.55;;;2.10;;
24137;SDS011;17947;50.672;6.076;2023-03-01T06:28:14;2.35;;;2.08;;
24137;SDS011;17947;50.672;6.076;2023-03-01T06:30:40;2.40;;;2.20;;
24137;SDS011;17947;50.672;6.076;2023-03-01T06:33:06;2.55;;;2.10;;
24137;SDS011;17947;50.672;6.076;2023-03-01T06:35:32;2.65;;;2.10;;
24137;SDS011;17947;50.672;6.076;2023-03-01T06:37:59;2.92;;;2.25;;
24137;SDS011;17947;50.672;6.076;2023-03-01T06:40:25;2.67;;;2.10;;
24137;SDS011;17947;50.672;6.076;2023-03-01T06:42:51;2.40;;;2.20;;
24137;SDS011;17947;50.672;6.076;2023-03-01T06:45:18;2.33;;;2.13;;
24137;SDS011;17947;50.672;6.076;2023-03-01T06:47:44;3.75;;;2.70;;
24137;SDS011;17947;50.672;6.076;2023-03-01T06:50:11;2.38;;;2.20;;
24137;SDS011;17947;50.672;6.076;2023-03-01T06:52:37;2.90;;;2.60;;
24137;SDS011;17947;50.672;6.076;2023-03-01T06:55:03;2.42;;;2.22;;
24137;SDS011;17947;50.672;6.076;2023-03-01T06:57:29;2.30;;;2.10;;
24137;SDS011;17947;50.672;6.076;2023-03-01T06:59:55;2.58;;;2.25;;
24137;SDS011;17947;50.672;6.076;2023-03-01T07:02:21;2.33;;;2.10;;
24137;SDS011;17947;50.672;6.076;2023-03-01T07:04:48;2.97;;;2.33;;
24137;SDS011;17947;50.672;6.076;2023-03-01T07:07:15;2.95;;;2.53;;
24137;SDS011;17947;50.672;6.076;2023-03-01T07:09:40;2.55;;;2.30;;
24137;SDS011;17947;50.672;6.076;2023-03-01T07:12:07;2.63;;;2.42;;
24137;SDS011;17947;50.672;6.076;2023-03-01T07:14:33;2.95;;;2.17;;
24137;SDS011;17947;50.672;6.076;2023-03-01T07:16:59;3.08;;;2.22;;
24137;SDS011;17947;50.672;6.076;2023-03-01T07:19:25;2.75;;;2.28;;
24137;SDS011;17947;50.672;6.076;2023-03-01T07:21:51;2.10;;;1.90;;
24137;SDS011;17947;50.672;6.076;2023-03-01T07:24:17;2.95;;;2.17;;
24137;SDS011;17947;50.672;6.076;2023-03-01T07:26:43;2.45;;;2.15;;
24137;SDS011;17947;50.672;6.076;2023-03-01T07:29:09;2.45;;;2.10;;
24137;SDS011;17947;50.672;6.076;2023-03-01T07:31:36;2.88;;;2.30;;
24137;SDS011;17947;50.672;6.076;2023-03-01T07:34:02;2.50;;;2.15;;
24137;SDS011;17947;50.672;6.076;2023-03-01T07:36:28;2.58;;;2.17;;
24137;SDS011;17947;50.672;6.076;2023-03-01T07:38:54;2.47;;;2.20;;
24137;SDS011;17947;50.672;6.076;2023-03-01T07:41:20;2.42;;;2.17;;
24137;SDS011;17947;50.672;6.076;2023-03-01T07:43:46;2.33;;;2.13;;
24137;SDS011;17947;50.672;6.076;2023-03-01T07:46:13;3.05;;;2.30;;
24137;SDS011;17947;50.672;6.076;2023-03-01T07:48:39;2.20;;;2.00;;
24137;SDS011;17947;50.672;6.076;2023-03-01T07:51:05;3.20;;;2.20;;
24137;SDS011;17947;50.672;6.076;2023-03-01T07:53:32;2.65;;;2.00;;
24137;SDS011;17947;50.672;6.076;2023-03-01T07:56:02;2.55;;;2.20;;
24137;SDS011;17947;50.672;6.076;2023-03-01T07:58:28;2.60;;;2.15;;
24137;SDS011;17947;50.672;6.076;2023-03-01T08:00:54;2.35;;;2.15;;
24137;SDS011;17947;50.672;6.076;2023-03-01T08:03:21;2.47;;;2.20;;
24137;SDS011;17947;50.672;6.076;2023-03-01T08:05:47;2.50;;;2.30;;
24137;SDS011;17947;50.672;6.076;2023-03-01T08:08:13;2.47;;;2.25;;
24137;SDS011;17947;50.672;6.076;2023-03-01T08:10:39;2.20;;;2.00;;
24137;SDS011;17947;50.672;6.076;2023-03-01T08:13:05;2.20;;;2.00;;
24137;SDS011;17947;50.672;6.076;2023-03-01T08:15:31;2.50;;;2.30;;
24137;SDS011;17947;50.672;6.076;2023-03-01T08:17:57;2.50;;;2.30;;
24137;SDS011;17947;50.672;6.076;2023-03-01T08:20:23;3.17;;;2.42;;
24137;SDS011;17947;50.672;6.076;2023-03-01T08:22:49;2.70;;;2.30;;
24137;SDS011;17947;50.672;6.076;2023-03-01T08:25:15;3.05;;;2.15;;
24137;SDS011;17947;50.672;6.076;2023-03-01T08:27:41;2.38;;;2.10;;
24137;SDS011;17947;50.672;6.076;2023-03-01T08:30:07;5.30;;;2.00;;
24137;SDS011;17947;50.672;6.076;2023-03-01T08:32:37;2.40;;;2.20;;
24137;SDS011;17947;50.672;6.076;2023-03-01T08:35:04;2.92;;;2.30;;
24137;SDS011;17947;50.672;6.076;2023-03-01T08:37:30;2.80;;;2.10;;
24137;SDS011;17947;50.672;6.076;2023-03-01T08:39:58;2.75;;;2.30;;
24137;SDS011;17947;50.672;6.076;2023-03-01T08:42:25;2.50;;;2.30;;
24137;SDS011;17947;50.672;6.076;2023-03-01T08:44:51;2.95;;;2.13;;
24137;SDS011;17947;50.672;6.076;2023-03-01T08:47:17;2.53;;;2.15;;
24137;SDS011;17947;50.672;6.076;2023-03-01T08:49:43;2.92;;;2.60;;
24137;SDS011;17947;50.672;6.076;2023-03-01T08:52:09;2.92;;;2.40;;
24137;SDS011;17947;50.672;6.076;2023-03-01T08:54:35;2.83;;;2.50;;
24137;SDS011;17947;50.672;6.076;2023-03-01T08:57:02;2.60;;;2.33;;
24137;SDS011;17947;50.672;6.076;2023-03-01T08:59:28;3.55;;;2.90;;
24137;SDS011;17947;50.672;6.076;2023-03-01T09:01:55;2.95;;;2.60;;
24137;SDS011;17947;50.672;6.076;2023-03-01T09:04:21;3.72;;;2.65;;
24137;SDS011;17947;50.672;6.076;2023-03-01T09:06:47;3.35;;;2.67;;
24137;SDS011;17947;50.672;6.076;2023-03-01T09:09:14;3.00;;;2.47;;
24137;SDS011;17947;50.672;6.076;2023-03-01T09:11:41;3.40;;;2.35;;
24137;SDS011;17947;50.672;6.076;2023-03-01T09:14:07;3.30;;;2.78;;
24137;SDS011;17947;50.672;6.076;2023-03-01T09:16:33;3.10;;;2.80;;
24137;SDS011;17947;50.672;6.076;2023-03-01T09:19:01;3.03;;;2.55;;
24137;SDS011;17947;50.672;6.076;2023-03-01T09:21:27;3.97;;;2.53;;
24137;SDS011;17947;50.672;6.076;2023-03-01T09:23:55;4.00;;;2.80;;
24137;SDS011;17947;50.672;6.076;2023-03-01T09:26:21;2.58;;;2.38;;
24137;SDS011;17947;50.672;6.076;2023-03-01T09:28:49;3.53;;;2.53;;
24137;SDS011;17947;50.672;6.076;2023-03-01T09:31:15;3.08;;;2.40;;
24137;SDS011;17947;50.672;6.076;2023-03-01T09:33:42;3.65;;;2.75;;
24137;SDS011;17947;50.672;6.076;2023-03-01T09:36:12;2.83;;;2.40;;
24137;SDS011;17947;50.672;6.076;2023-03-01T09:38:38;3.03;;;2.35;;
24137;SDS011;17947;50.672;6.076;2023-03-01T09:43:56;3.20;;;2.60;;
24137;SDS011;17947;50.672;6.076;2023-03-01T09:46:24;3.20;;;2.58;;
24137;SDS011;17947;50.672;6.076;2023-03-01T09:51:23;3.00;;;2.60;;
24137;SDS011;17947;50.672;6.076;2023-03-01T09:53:50;3.30;;;2.75;;
24137;SDS011;17947;50.672;6.076;2023-03-01T09:56:30;3.33;;;2.65;;
24137;SDS011;17947;50.672;6.076;2023-03-01T10:01:52;2.72;;;2.47;;
24137;SDS011;17947;50.672;6.076;2023-03-01T10:09:35;3.15;;;2.50;;
24137;SDS011;17947;50.672;6.076;2023-03-01T10:12:02;2.75;;;2.20;;
24137;SDS011;17947;50.672;6.076;2023-03-01T10:14:37;2.90;;;2.60;;
24137;SDS011;17947;50.672;6.076;2023-03-01T10:17:05;2.58;;;2.35;;
24137;SDS011;17947;50.672;6.076;2023-03-01T10:19:36;2.63;;;2.30;;
24137;SDS011;17947;50.672;6.076;2023-03-01T10:22:15;4.55;;;2.20;;
24137;SDS011;17947;50.672;6.076;2023-03-01T10:24:42;3.45;;;2.30;;
24137;SDS011;17947;50.672;6.076;2023-03-01T10:32:10;2.90;;;2.20;;
24137;SDS011;17947;50.672;6.076;2023-03-01T10:34:37;4.13;;;2.45;;
24137;SDS011;17947;50.672;6.076;2023-03-01T10:39:39;2.60;;;2.35;;
24137;SDS011;17947;50.672;6.076;2023-03-01T10:42:22;3.35;;;2.20;;
24137;SDS011;17947;50.672;6.076;2023-03-01T10:44:50;2.63;;;2.13;;
24137;SDS011;17947;50.672;6.076;2023-03-01T10:47:23;2.75;;;2.40;;
24137;SDS011;17947;50.672;6.076;2023-03-01T10:52:30;2.83;;;2.53;;
24137;SDS011;17947;50.672;6.076;2023-03-01T10:55:01;2.28;;;2.05;;
24137;SDS011;17947;50.672;6.076;2023-03-01T10:57:29;3.22;;;2.67;;
24137;SDS011;17947;50.672;6.076;2023-03-01T11:02:42;2.93;;;2.57;;
24137;SDS011;17947;50.672;6.076;2023-03-01T11:05:19;3.20;;;2.40;;
24137;SDS011;17947;50.672;6.076;2023-03-01T11:07:46;3.22;;;2.28;;
24137;SDS011;17947;50.672;6.076;2023-03-01T11:10:16;3.00;;;2.38;;
24137;SDS011;17947;50.672;6.076;2023-03-01T11:12:42;3.47;;;2.60;;
24137;SDS011;17947;50.672;6.076;2023-03-01T11:15:15;2.53;;;2.30;;
24137;SDS011;17947;50.672;6.076;2023-03-01T11:17:45;2.47;;;2.20;;
24137;SDS011;17947;50.672;6.076;2023-03-01T11:22:43;3.22;;;2.38;;
24137;SDS011;17947;50.672;6.076;2023-03-01T11:25:11;2.30;;;2.10;;
24137;SDS011;17947;50.672;6.076;2023-03-01T11:27:43;3.13;;;2.50;;
24137;SDS011;17947;50.672;6.076;2023-03-01T11:30:24;3.42;;;2.58;;
24137;SDS011;17947;50.672;6.076;2023-03-01T11:35:29;3.05;;;2.13;;
24137;SDS011;17947;50.672;6.076;2023-03-01T11:38:09;2.70;;;2.50;;
24137;SDS011;17947;50.672;6.076;2023-03-01T11:40:40;2.60;;;2.20;;
24137;SDS011;17947;50.672;6.076;2023-03-01T11:48:28;2.70;;;2.33;;
24137;SDS011;17947;50.672;6.076;2023-03-01T11:50:56;2.53;;;2.15;;
24137;SDS011;17947;50.672;6.076;2023-03-01T12:00:55;2.50;;;2.20;;
24137;SDS011;17947;50.672;6.076;2023-03-01T12:03:31;2.40;;;2.20;;
24137;SDS011;17947;50.672;6.076;2023-03-01T12:06:02;2.50;;;2.22;;
24137;SDS011;17947;50.672;6.076;2023-03-01T12:08:44;2.78;;;2.30;;
24137;SDS011;17947;50.672;6.076;2023-03-01T12:19:13;2.65;;;2.17;;
24137;SDS011;17947;50.672;6.076;2023-03-01T12:27:08;2.22;;;2.03;;
24137;SDS011;17947;50.672;6.076;2023-03-01T12:29:54;2.10;;;1.90;;
24137;SDS011;17947;50.672;6.076;2023-03-01T12:43:14;2.85;;;2.20;;
24137;SDS011;17947;50.672;6.076;2023-03-01T12:48:35;3.45;;;2.30;;
24137;SDS011;17947;50.672;6.076;2023-03-01T12:51:06;2.33;;;2.13;;
24137;SDS011;17947;50.672;6.076;2023-03-01T12:53:39;2.33;;;2.13;;
24137;SDS011;17947;50.672;6.076;2023-03-01T12:56:05;4.32;;;2.63;;
24137;SDS011;17947;50.672;6.076;2023-03-01T12:58:39;3.88;;;2.40;;
24137;SDS011;17947;50.672;6.076;2023-03-01T13:06:10;2.45;;;2.10;;
24137;SDS011;17947;50.672;6.076;2023-03-01T13:11:04;2.42;;;2.20;;
24137;SDS011;17947;50.672;6.076;2023-03-01T13:13:31;3.42;;;2.47;;
24137;SDS011;17947;50.672;6.076;2023-03-01T13:15:57;2.78;;;2.40;;
24137;SDS011;17947;50.672;6.076;2023-03-01T13:20:53;2.70;;;2.30;;
24137;SDS011;17947;50.672;6.076;2023-03-01T13:28:46;2.58;;;2.13;;
24137;SDS011;17947;50.672;6.076;2023-03-01T13:46:49;2.95;;;2.65;;
24137;SDS011;17947;50.672;6.076;2023-03-01T13:49:16;3.13;;;2.70;;
24137;SDS011;17947;50.672;6.076;2023-03-01T13:51:46;3.58;;;2.78;;
24137;SDS011;17947;50.672;6.076;2023-03-01T13:59:51;2.80;;;2.35;;
24137;SDS011;17947;50.672;6.076;2023-03-01T14:02:17;3.17;;;2.63;;
24137;SDS011;17947;50.672;6.076;2023-03-01T14:04:43;3.28;;;2.60;;
24137;SDS011;17947;50.672;6.076;2023-03-01T14:07:22;3.47;;;2.83;;
24137;SDS011;17947;50.672;6.076;2023-03-01T14:09:55;3.17;;;2.88;;
24137;SDS011;17947;50.672;6.076;2023-03-01T14:17:33;4.00;;;2.50;;
24137;SDS011;17947;50.672;6.076;2023-03-01T14:20:07;3.35;;;2.38;;
24137;SDS011;17947;50.672;6.076;2023-03-01T14:22:34;3.92;;;2.85;;
24137;SDS011;17947;50.672;6.076;2023-03-01T14:27:33;3.38;;;2.80;;
24137;SDS011;17947;50.672;6.076;2023-03-01T14:30:01;3.40;;;3.10;;
24137;SDS011;17947;50.672;6.076;2023-03-01T14:32:30;3.25;;;2.63;;
24137;SDS011;17947;50.672;6.076;2023-03-01T14:34:57;3.72;;;2.65;;
24137;SDS011;17947;50.672;6.076;2023-03-01T14:37:27;2.88;;;2.53;;
24137;SDS011;17947;50.672;6.076;2023-03-01T14:39:54;3.55;;;2.60;;
24137;SDS011;17947;50.672;6.076;2023-03-01T14:42:21;3.55;;;2.80;;
24137;SDS011;17947;50.672;6.076;2023-03-01T14:44:49;2.53;;;2.17;;
24137;SDS011;17947;50.672;6.076;2023-03-01T14:47:20;3.10;;;2.80;;
24137;SDS011;17947;50.672;6.076;2023-03-01T14:49:49;3.20;;;2.55;;
24137;SDS011;17947;50.672;6.076;2023-03-01T14:52:18;3.58;;;2.50;;
24137;SDS011;17947;50.672;6.076;2023-03-01T14:54:48;3.22;;;2.55;;
24137;SDS011;17947;50.672;6.076;2023-03-01T14:57:16;2.88;;;2.40;;
24137;SDS011;17947;50.672;6.076;2023-03-01T14:59:42;3.50;;;2.60;;
24137;SDS011;17947;50.672;6.076;2023-03-01T15:02:12;3.67;;;2.45;;
24137;SDS011;17947;50.672;6.076;2023-03-01T15:04:42;3.17;;;2.65;;
24137;SDS011;17947;50.672;6.076;2023-03-01T15:07:09;2.55;;;2.35;;
24137;SDS011;17947;50.672;6.076;2023-03-01T15:09:39;3.78;;;2.28;;
24137;SDS011;17947;50.672;6.076;2023-03-01T15:12:24;4.32;;;2.13;;
24137;SDS011;17947;50.672;6.076;2023-03-01T15:14:50;2.45;;;2.22;;
24137;SDS011;17947;50.672;6.076;2023-03-01T15:19:47;3.33;;;2.47;;
24137;SDS011;17947;50.672;6.076;2023-03-01T15:22:14;3.63;;;2.33;;
24137;SDS011;17947;50.672;6.076;2023-03-01T15:24:41;2.80;;;2.33;;
24137;SDS011;17947;50.672;6.076;2023-03-01T15:27:17;3.38;;;2.58;;
24137;SDS011;17947;50.672;6.076;2023-03-01T15:29:47;3.05;;;2.42;;
24137;SDS011;17947;50.672;6.076;2023-03-01T15:32:26;3.47;;;2.22;;
24137;SDS011;17947;50.672;6.076;2023-03-01T15:34:52;2.35;;;2.00;;
24137;SDS011;17947;50.672;6.076;2023-03-01T15:37:39;2.42;;;2.22;;
24137;SDS011;17947;50.672;6.076;2023-03-01T15:40:19;2.38;;;2.05;;
24137;SDS011;17947;50.672;6.076;2023-03-01T15:42:46;3.00;;;2.35;;
24137;SDS011;17947;50.672;6.076;2023-03-01T15:47:52;2.67;;;2.40;;
24137;SDS011;17947;50.672;6.076;2023-03-01T15:50:24;2.97;;;2.25;;
24137;SDS011;17947;50.672;6.076;2023-03-01T15:52:50;2.20;;;2.00;;
24137;SDS011;17947;50.672;6.076;2023-03-01T15:55:20;2.63;;;2.43;;
24137;SDS011;17947;50.672;6.076;2023-03-01T15:57:47;3.50;;;2.60;;
24137;SDS011;17947;50.672;6.076;2023-03-01T16:00:13;3.60;;;2.63;;
24137;SDS011;17947;50.672;6.076;2023-03-01T16:02:40;2.88;;;2.58;;
24137;SDS011;17947;50.672;6.076;2023-03-01T16:05:26;3.13;;;2.60;;
24137;SDS011;17947;50.672;6.076;2023-03-01T16:07:52;4.38;;;2.80;;
24137;SDS011;17947;50.672;6.076;2023-03-01T16:10:19;2.60;;;2.40;;
24137;SDS011;17947;50.672;6.076;2023-03-01T16:12:45;3.22;;;2.38;;
24137;SDS011;17947;50.672;6.076;2023-03-01T16:15:37;2.83;;;2.40;;
24137;SDS011;17947;50.672;6.076;2023-03-01T16:18:03;3.08;;;2.58;;
24137;SDS011;17947;50.672;6.076;2023-03-01T16:20:30;3.80;;;2.30;;
24137;SDS011;17947;50.672;6.076;2023-03-01T16:23:00;4.20;;;2.65;;
24137;SDS011;17947;50.672;6.076;2023-03-01T16:25:26;2.70;;;2.28;;
24137;SDS011;17947;50.672;6.076;2023-03-01T16:27:52;2.88;;;2.58;;
24137;SDS011;17947;50.672;6.076;2023-03-01T16:30:21;3.03;;;2.33;;
24137;SDS011;17947;50.672;6.076;2023-03-01T16:32:47;3.60;;;3.00;;
24137;SDS011;17947;50.672;6.076;2023-03-01T16:35:14;5.25;;;3.70;;
24137;SDS011;17947;50.672;6.076;2023-03-01T16:37:41;5.25;;;3.80;;
24137;SDS011;17947;50.672;6.076;2023-03-01T16:40:16;7.78;;;3.38;;
24137;SDS011;17947;50.672;6.076;2023-03-01T16:42:43;6.53;;;3.80;;
24137;SDS011;17947;50.672;6.076;2023-03-01T16:45:09;7.07;;;3.40;;
24137;SDS011;17947;50.672;6.076;2023-03-01T16:47:36;5.68;;;3.65;;
24137;SDS011;17947;50.672;6.076;2023-03-01T16:50:02;6.85;;;3.20;;
24137;SDS011;17947;50.672;6.076;2023-03-01T16:52:28;4.85;;;3.17;;
24137;SDS011;17947;50.672;6.076;2023-03-01T16:54:54;3.72;;;2.80;;
24137;SDS011;17947;50.672;6.076;2023-03-01T16:57:20;4.72;;;2.95;;
24137;SDS011;17947;50.672;6.076;2023-03-01T16:59:46;5.15;;;3.17;;
24137;SDS011;17947;50.672;6.076;2023-03-01T17:02:12;7.30;;;3.20;;
24137;SDS011;17947;50.672;6.076;2023-03-01T17:04:40;3.60;;;2.80;;
24137;SDS011;17947;50.672;6.076;2023-03-01T17:07:06;4.43;;;2.90;;